Weather at Ibm Building 250 Heliport

Public forecast

Using degrees Fahrenheit for public forecast. Weather courtesy of forecast.io.

Closest aviation weather report (METAR) to Ibm Building 250 Heliport

Closest report is Manassas Regional Airport/Harry P. Davis Field, 2.3 nm (4.3 km) S. Retrieved 2021/01/28 12:56 UTC (38 minutes ago):

KHEF 281256Z 34015G22KT 10SM CLR M02/M09 A3022 RMK AO2 PK WND 35026/1207 SLP240 T10171089 FZRANO

Closest aviation forecast (TAF) to Ibm Building 250 Heliport

Closest forecast is Washington Dulles International Airport, 11.3 nm (21.0 km) NNE. Retrieved 2021/01/28 12:22 UTC (1 hour ago):

TAF KIAD 281120Z 2812/2918 33012G27KT P6SM SCT090 OVC100 FM281500 34016G34KT P6SM SCT030 BKN250 FM281600 33016G35KT P6SM FEW200 SCT250 FM290600 32010G23KT P6SM FEW030 SCT250 FM291300 31010G25KT P6SM SCT250 FM291700 32016G33KT P6SM FEW045 SCT140